sensor_id;sensor_type;location;lat;lon;timestamp;P1;durP1;ratioP1;P2;durP2;ratioP2
21814;SDS011;11069;48.988;8.450;2022-07-29T00:01:14;6.68;;;4.05;;
21814;SDS011;11069;48.988;8.450;2022-07-29T00:03:41;5.72;;;4.10;;
21814;SDS011;11069;48.988;8.450;2022-07-29T00:06:06;5.47;;;4.20;;
21814;SDS011;11069;48.988;8.450;2022-07-29T00:08:32;4.75;;;4.25;;
21814;SDS011;11069;48.988;8.450;2022-07-29T00:10:57;4.35;;;3.70;;
21814;SDS011;11069;48.988;8.450;2022-07-29T00:13:23;4.40;;;3.90;;
21814;SDS011;11069;48.988;8.450;2022-07-29T00:15:49;7.53;;;4.25;;
21814;SDS011;11069;48.988;8.450;2022-07-29T00:18:14;5.72;;;4.10;;
21814;SDS011;11069;48.988;8.450;2022-07-29T00:20:40;5.40;;;4.18;;
21814;SDS011;11069;48.988;8.450;2022-07-29T00:23:05;4.55;;;3.40;;
21814;SDS011;11069;48.988;8.450;2022-07-29T00:25:31;6.00;;;4.20;;
21814;SDS011;11069;48.988;8.450;2022-07-29T00:27:57;4.43;;;3.83;;
21814;SDS011;11069;48.988;8.450;2022-07-29T00:30:23;4.28;;;3.88;;
21814;SDS011;11069;48.988;8.450;2022-07-29T00:32:48;4.90;;;3.95;;
21814;SDS011;11069;48.988;8.450;2022-07-29T00:35:14;5.70;;;4.95;;
21814;SDS011;11069;48.988;8.450;2022-07-29T00:37:58;5.70;;;3.95;;
21814;SDS011;11069;48.988;8.450;2022-07-29T00:40:24;12.40;;;4.40;;
21814;SDS011;11069;48.988;8.450;2022-07-29T00:42:50;4.60;;;4.20;;
21814;SDS011;11069;48.988;8.450;2022-07-29T00:45:16;6.60;;;4.35;;
21814;SDS011;11069;48.988;8.450;2022-07-29T00:47:43;4.93;;;4.30;;
21814;SDS011;11069;48.988;8.450;2022-07-29T00:50:10;4.15;;;3.75;;
21814;SDS011;11069;48.988;8.450;2022-07-29T00:52:38;5.13;;;3.83;;
21814;SDS011;11069;48.988;8.450;2022-07-29T00:55:05;4.78;;;4.15;;
21814;SDS011;11069;48.988;8.450;2022-07-29T00:57:33;6.35;;;4.20;;
21814;SDS011;11069;48.988;8.450;2022-07-29T01:00:00;6.38;;;4.03;;
21814;SDS011;11069;48.988;8.450;2022-07-29T01:02:26;4.93;;;4.05;;
21814;SDS011;11069;48.988;8.450;2022-07-29T01:04:51;6.80;;;4.28;;
21814;SDS011;11069;48.988;8.450;2022-07-29T01:07:18;4.70;;;3.95;;
21814;SDS011;11069;48.988;8.450;2022-07-29T01:09:44;4.70;;;4.30;;
21814;SDS011;11069;48.988;8.450;2022-07-29T01:12:11;7.18;;;4.43;;
21814;SDS011;11069;48.988;8.450;2022-07-29T01:14:40;4.93;;;4.43;;
21814;SDS011;11069;48.988;8.450;2022-07-29T01:17:09;4.50;;;4.10;;
21814;SDS011;11069;48.988;8.450;2022-07-29T01:19:45;4.80;;;4.40;;
21814;SDS011;11069;48.988;8.450;2022-07-29T01:25:16;4.78;;;4.22;;
21814;SDS011;11069;48.988;8.450;2022-07-29T01:30:38;4.85;;;4.32;;
21814;SDS011;11069;48.988;8.450;2022-07-29T01:33:10;8.52;;;5.00;;
21814;SDS011;11069;48.988;8.450;2022-07-29T01:36:01;6.95;;;4.57;;
21814;SDS011;11069;48.988;8.450;2022-07-29T01:38:38;5.68;;;4.60;;
21814;SDS011;11069;48.988;8.450;2022-07-29T01:41:07;6.65;;;4.88;;
21814;SDS011;11069;48.988;8.450;2022-07-29T01:43:44;4.93;;;4.43;;
21814;SDS011;11069;48.988;8.450;2022-07-29T01:46:24;6.05;;;4.85;;
21814;SDS011;11069;48.988;8.450;2022-07-29T01:49:06;6.63;;;4.82;;
21814;SDS011;11069;48.988;8.450;2022-07-29T01:56:39;7.25;;;4.60;;
21814;SDS011;11069;48.988;8.450;2022-07-29T01:59:07;5.30;;;4.80;;
21814;SDS011;11069;48.988;8.450;2022-07-29T02:01:34;4.85;;;4.35;;
21814;SDS011;11069;48.988;8.450;2022-07-29T02:04:03;6.88;;;4.60;;
21814;SDS011;11069;48.988;8.450;2022-07-29T02:06:31;6.07;;;4.47;;
21814;SDS011;11069;48.988;8.450;2022-07-29T02:08:59;5.30;;;4.80;;
21814;SDS011;11069;48.988;8.450;2022-07-29T02:11:27;5.13;;;4.63;;
21814;SDS011;11069;48.988;8.450;2022-07-29T02:13:54;6.88;;;5.55;;
21814;SDS011;11069;48.988;8.450;2022-07-29T02:16:22;7.43;;;4.80;;
21814;SDS011;11069;48.988;8.450;2022-07-29T02:18:52;5.30;;;4.88;;
21814;SDS011;11069;48.988;8.450;2022-07-29T02:21:19;5.47;;;4.65;;
21814;SDS011;11069;48.988;8.450;2022-07-29T02:23:49;5.95;;;4.78;;
21814;SDS011;11069;48.988;8.450;2022-07-29T02:26:18;6.75;;;5.13;;
21814;SDS011;11069;48.988;8.450;2022-07-29T02:28:45;4.95;;;4.47;;
21814;SDS011;11069;48.988;8.450;2022-07-29T02:31:13;6.35;;;5.30;;
21814;SDS011;11069;48.988;8.450;2022-07-29T02:33:41;8.10;;;5.18;;
21814;SDS011;11069;48.988;8.450;2022-07-29T02:36:07;7.22;;;5.35;;
21814;SDS011;11069;48.988;8.450;2022-07-29T02:38:34;5.68;;;5.07;;
21814;SDS011;11069;48.988;8.450;2022-07-29T02:41:28;5.05;;;4.60;;
21814;SDS011;11069;48.988;8.450;2022-07-29T02:43:56;5.68;;;5.07;;
21814;SDS011;11069;48.988;8.450;2022-07-29T02:46:30;5.80;;;5.30;;
21814;SDS011;11069;48.988;8.450;2022-07-29T02:49:18;5.15;;;4.72;;
21814;SDS011;11069;48.988;8.450;2022-07-29T02:51:55;6.35;;;4.63;;
21814;SDS011;11069;48.988;8.450;2022-07-29T02:54:33;5.50;;;4.60;;
21814;SDS011;11069;48.988;8.450;2022-07-29T02:57:18;6.28;;;5.47;;
21814;SDS011;11069;48.988;8.450;2022-07-29T02:59:48;5.70;;;5.20;;
21814;SDS011;11069;48.988;8.450;2022-07-29T03:02:16;7.82;;;5.00;;
21814;SDS011;11069;48.988;8.450;2022-07-29T03:04:42;6.05;;;5.18;;
21814;SDS011;11069;48.988;8.450;2022-07-29T03:07:09;6.10;;;5.18;;
21814;SDS011;11069;48.988;8.450;2022-07-29T03:09:37;5.78;;;4.97;;
21814;SDS011;11069;48.988;8.450;2022-07-29T03:12:05;6.28;;;5.35;;
21814;SDS011;11069;48.988;8.450;2022-07-29T03:14:31;7.07;;;5.22;;
21814;SDS011;11069;48.988;8.450;2022-07-29T03:16:58;8.55;;;5.28;;
21814;SDS011;11069;48.988;8.450;2022-07-29T03:19:24;8.07;;;5.45;;
21814;SDS011;11069;48.988;8.450;2022-07-29T03:21:51;7.93;;;5.88;;
21814;SDS011;11069;48.988;8.450;2022-07-29T03:24:36;10.43;;;5.95;;
21814;SDS011;11069;48.988;8.450;2022-07-29T03:27:02;7.80;;;5.50;;
21814;SDS011;11069;48.988;8.450;2022-07-29T03:29:29;7.53;;;6.03;;
21814;SDS011;11069;48.988;8.450;2022-07-29T03:31:55;6.88;;;5.30;;
21814;SDS011;11069;48.988;8.450;2022-07-29T03:34:20;8.68;;;5.95;;
21814;SDS011;11069;48.988;8.450;2022-07-29T03:36:46;6.25;;;5.65;;
21814;SDS011;11069;48.988;8.450;2022-07-29T03:39:14;6.15;;;5.55;;
21814;SDS011;11069;48.988;8.450;2022-07-29T03:41:43;6.93;;;6.00;;
21814;SDS011;11069;48.988;8.450;2022-07-29T03:44:11;7.18;;;5.68;;
21814;SDS011;11069;48.988;8.450;2022-07-29T03:46:38;6.13;;;5.53;;
21814;SDS011;11069;48.988;8.450;2022-07-29T03:49:06;6.50;;;5.90;;
21814;SDS011;11069;48.988;8.450;2022-07-29T03:51:34;8.10;;;5.78;;
21814;SDS011;11069;48.988;8.450;2022-07-29T03:54:00;6.10;;;5.57;;
21814;SDS011;11069;48.988;8.450;2022-07-29T03:56:27;8.07;;;6.32;;
21814;SDS011;11069;48.988;8.450;2022-07-29T03:58:54;7.40;;;6.03;;
21814;SDS011;11069;48.988;8.450;2022-07-29T04:01:20;6.40;;;5.80;;
21814;SDS011;11069;48.988;8.450;2022-07-29T04:03:47;7.07;;;6.00;;
21814;SDS011;11069;48.988;8.450;2022-07-29T04:06:13;6.65;;;6.05;;
21814;SDS011;11069;48.988;8.450;2022-07-29T04:08:39;8.18;;;6.07;;
21814;SDS011;11069;48.988;8.450;2022-07-29T04:11:05;7.40;;;5.47;;
21814;SDS011;11069;48.988;8.450;2022-07-29T04:13:31;8.85;;;5.97;;
21814;SDS011;11069;48.988;8.450;2022-07-29T04:15:57;6.35;;;5.75;;
21814;SDS011;11069;48.988;8.450;2022-07-29T04:18:23;6.35;;;5.47;;
21814;SDS011;11069;48.988;8.450;2022-07-29T04:20:49;6.60;;;5.78;;
21814;SDS011;11069;48.988;8.450;2022-07-29T04:23:15;6.65;;;5.82;;
21814;SDS011;11069;48.988;8.450;2022-07-29T04:25:41;5.85;;;5.30;;
21814;SDS011;11069;48.988;8.450;2022-07-29T04:28:07;7.40;;;5.72;;
21814;SDS011;11069;48.988;8.450;2022-07-29T04:30:34;7.05;;;5.65;;
21814;SDS011;11069;48.988;8.450;2022-07-29T04:33:01;9.38;;;6.05;;
21814;SDS011;11069;48.988;8.450;2022-07-29T04:35:28;10.35;;;6.13;;
21814;SDS011;11069;48.988;8.450;2022-07-29T04:37:54;7.63;;;5.82;;
21814;SDS011;11069;48.988;8.450;2022-07-29T04:40:20;8.10;;;6.00;;
21814;SDS011;11069;48.988;8.450;2022-07-29T04:42:46;9.23;;;6.65;;
21814;SDS011;11069;48.988;8.450;2022-07-29T04:45:11;10.02;;;6.30;;
21814;SDS011;11069;48.988;8.450;2022-07-29T04:47:37;10.48;;;6.15;;
21814;SDS011;11069;48.988;8.450;2022-07-29T04:50:03;11.25;;;6.30;;
21814;SDS011;11069;48.988;8.450;2022-07-29T04:52:30;7.00;;;6.20;;
21814;SDS011;11069;48.988;8.450;2022-07-29T04:54:55;8.18;;;6.05;;
21814;SDS011;11069;48.988;8.450;2022-07-29T04:57:21;7.63;;;6.13;;
21814;SDS011;11069;48.988;8.450;2022-07-29T04:59:46;8.70;;;6.65;;
21814;SDS011;11069;48.988;8.450;2022-07-29T05:02:12;7.38;;;6.32;;
21814;SDS011;11069;48.988;8.450;2022-07-29T05:04:38;5.93;;;5.32;;
21814;SDS011;11069;48.988;8.450;2022-07-29T05:07:03;6.68;;;5.88;;
21814;SDS011;11069;48.988;8.450;2022-07-29T05:09:29;9.32;;;6.00;;
21814;SDS011;11069;48.988;8.450;2022-07-29T05:11:57;9.10;;;5.68;;
21814;SDS011;11069;48.988;8.450;2022-07-29T05:14:23;10.55;;;6.57;;
21814;SDS011;11069;48.988;8.450;2022-07-29T05:16:48;7.15;;;6.30;;
21814;SDS011;11069;48.988;8.450;2022-07-29T05:19:16;11.02;;;6.88;;
21814;SDS011;11069;48.988;8.450;2022-07-29T05:21:42;9.35;;;6.50;;
21814;SDS011;11069;48.988;8.450;2022-07-29T05:24:09;10.75;;;6.80;;
21814;SDS011;11069;48.988;8.450;2022-07-29T05:26:35;7.15;;;6.45;;
21814;SDS011;11069;48.988;8.450;2022-07-29T05:29:00;13.60;;;7.25;;
21814;SDS011;11069;48.988;8.450;2022-07-29T05:31:26;12.77;;;7.20;;
21814;SDS011;11069;48.988;8.450;2022-07-29T05:33:52;9.38;;;6.68;;
21814;SDS011;11069;48.988;8.450;2022-07-29T05:36:17;10.30;;;7.35;;
21814;SDS011;11069;48.988;8.450;2022-07-29T05:38:43;12.38;;;7.03;;
21814;SDS011;11069;48.988;8.450;2022-07-29T05:41:09;8.55;;;6.45;;
21814;SDS011;11069;48.988;8.450;2022-07-29T05:43:34;11.35;;;7.63;;
21814;SDS011;11069;48.988;8.450;2022-07-29T05:46:00;8.30;;;6.88;;
21814;SDS011;11069;48.988;8.450;2022-07-29T05:48:25;14.15;;;7.40;;
21814;SDS011;11069;48.988;8.450;2022-07-29T05:50:51;11.52;;;6.85;;
21814;SDS011;11069;48.988;8.450;2022-07-29T05:53:18;10.07;;;6.40;;
21814;SDS011;11069;48.988;8.450;2022-07-29T05:55:43;9.73;;;7.32;;
21814;SDS011;11069;48.988;8.450;2022-07-29T05:58:09;10.98;;;6.82;;
21814;SDS011;11069;48.988;8.450;2022-07-29T06:00:34;12.52;;;7.00;;
21814;SDS011;11069;48.988;8.450;2022-07-29T06:03:00;13.52;;;7.63;;
21814;SDS011;11069;48.988;8.450;2022-07-29T06:05:26;9.50;;;6.32;;
21814;SDS011;11069;48.988;8.450;2022-07-29T06:07:52;11.27;;;7.18;;
21814;SDS011;11069;48.988;8.450;2022-07-29T06:10:18;10.18;;;6.72;;
21814;SDS011;11069;48.988;8.450;2022-07-29T06:12:44;12.48;;;7.15;;
21814;SDS011;11069;48.988;8.450;2022-07-29T06:15:10;11.02;;;6.60;;
21814;SDS011;11069;48.988;8.450;2022-07-29T06:17:35;9.02;;;5.70;;
21814;SDS011;11069;48.988;8.450;2022-07-29T06:20:02;10.82;;;5.82;;
21814;SDS011;11069;48.988;8.450;2022-07-29T06:22:28;9.73;;;5.97;;
21814;SDS011;11069;48.988;8.450;2022-07-29T06:24:54;9.45;;;6.03;;
21814;SDS011;11069;48.988;8.450;2022-07-29T06:27:20;8.75;;;6.10;;
21814;SDS011;11069;48.988;8.450;2022-07-29T06:29:45;8.32;;;5.43;;
21814;SDS011;11069;48.988;8.450;2022-07-29T06:32:11;9.95;;;5.85;;
21814;SDS011;11069;48.988;8.450;2022-07-29T06:34:37;8.90;;;5.68;;
21814;SDS011;11069;48.988;8.450;2022-07-29T06:37:06;6.78;;;5.18;;
21814;SDS011;11069;48.988;8.450;2022-07-29T06:39:33;10.93;;;5.27;;
21814;SDS011;11069;48.988;8.450;2022-07-29T06:42:06;7.88;;;5.55;;
21814;SDS011;11069;48.988;8.450;2022-07-29T06:44:31;11.27;;;5.38;;
21814;SDS011;11069;48.988;8.450;2022-07-29T06:47:00;9.60;;;5.13;;
21814;SDS011;11069;48.988;8.450;2022-07-29T06:49:26;9.95;;;5.13;;
21814;SDS011;11069;48.988;8.450;2022-07-29T06:51:52;5.45;;;4.40;;
21814;SDS011;11069;48.988;8.450;2022-07-29T06:54:19;8.82;;;4.28;;
21814;SDS011;11069;48.988;8.450;2022-07-29T06:56:44;6.82;;;4.57;;
21814;SDS011;11069;48.988;8.450;2022-07-29T06:59:11;7.32;;;4.20;;
21814;SDS011;11069;48.988;8.450;2022-07-29T07:01:41;7.43;;;4.43;;
21814;SDS011;11069;48.988;8.450;2022-07-29T07:04:07;8.13;;;4.57;;
21814;SDS011;11069;48.988;8.450;2022-07-29T07:06:33;9.40;;;4.30;;
21814;SDS011;11069;48.988;8.450;2022-07-29T07:08:59;9.30;;;4.22;;
21814;SDS011;11069;48.988;8.450;2022-07-29T07:11:26;7.28;;;4.07;;
21814;SDS011;11069;48.988;8.450;2022-07-29T07:13:51;9.68;;;4.38;;
21814;SDS011;11069;48.988;8.450;2022-07-29T07:16:17;6.30;;;4.03;;
21814;SDS011;11069;48.988;8.450;2022-07-29T07:18:43;5.90;;;3.75;;
21814;SDS011;11069;48.988;8.450;2022-07-29T07:21:10;9.00;;;4.10;;
21814;SDS011;11069;48.988;8.450;2022-07-29T07:23:36;8.80;;;4.30;;
21814;SDS011;11069;48.988;8.450;2022-07-29T07:26:01;8.15;;;4.07;;
21814;SDS011;11069;48.988;8.450;2022-07-29T07:28:28;7.80;;;4.50;;
21814;SDS011;11069;48.988;8.450;2022-07-29T07:30:53;7.13;;;4.30;;
21814;SDS011;11069;48.988;8.450;2022-07-29T07:33:19;7.97;;;3.90;;
21814;SDS011;11069;48.988;8.450;2022-07-29T07:35:45;9.20;;;4.38;;
21814;SDS011;11069;48.988;8.450;2022-07-29T07:38:11;6.25;;;4.30;;
21814;SDS011;11069;48.988;8.450;2022-07-29T07:40:37;9.48;;;4.07;;
21814;SDS011;11069;48.988;8.450;2022-07-29T07:43:02;8.35;;;4.43;;
21814;SDS011;11069;48.988;8.450;2022-07-29T07:45:28;8.45;;;4.00;;
21814;SDS011;11069;48.988;8.450;2022-07-29T07:47:54;6.93;;;4.43;;
21814;SDS011;11069;48.988;8.450;2022-07-29T07:50:19;7.38;;;3.80;;
21814;SDS011;11069;48.988;8.450;2022-07-29T07:52:46;7.85;;;4.03;;
21814;SDS011;11069;48.988;8.450;2022-07-29T07:55:13;6.57;;;3.83;;
21814;SDS011;11069;48.988;8.450;2022-07-29T07:57:39;7.00;;;3.85;;
21814;SDS011;11069;48.988;8.450;2022-07-29T08:00:05;6.53;;;3.40;;
21814;SDS011;11069;48.988;8.450;2022-07-29T08:02:31;7.18;;;3.70;;
21814;SDS011;11069;48.988;8.450;2022-07-29T08:04:57;8.18;;;3.58;;
21814;SDS011;11069;48.988;8.450;2022-07-29T08:07:24;5.03;;;3.10;;
21814;SDS011;11069;48.988;8.450;2022-07-29T08:09:50;5.40;;;3.40;;
21814;SDS011;11069;48.988;8.450;2022-07-29T08:12:15;3.75;;;3.10;;
21814;SDS011;11069;48.988;8.450;2022-07-29T08:14:41;4.88;;;3.20;;
21814;SDS011;11069;48.988;8.450;2022-07-29T08:17:07;11.07;;;4.15;;
21814;SDS011;11069;48.988;8.450;2022-07-29T08:19:32;6.40;;;3.83;;
21814;SDS011;11069;48.988;8.450;2022-07-29T08:21:58;8.95;;;3.90;;
21814;SDS011;11069;48.988;8.450;2022-07-29T08:24:24;5.82;;;3.75;;
21814;SDS011;11069;48.988;8.450;2022-07-29T08:27:08;7.28;;;3.63;;
21814;SDS011;11069;48.988;8.450;2022-07-29T08:29:34;5.85;;;3.78;;
21814;SDS011;11069;48.988;8.450;2022-07-29T08:32:00;9.27;;;3.50;;
21814;SDS011;11069;48.988;8.450;2022-07-29T08:34:26;4.78;;;3.00;;
21814;SDS011;11069;48.988;8.450;2022-07-29T08:36:53;5.55;;;3.28;;
21814;SDS011;11069;48.988;8.450;2022-07-29T08:39:19;6.63;;;2.97;;
21814;SDS011;11069;48.988;8.450;2022-07-29T08:41:45;8.65;;;3.40;;
21814;SDS011;11069;48.988;8.450;2022-07-29T08:44:10;8.20;;;3.15;;
21814;SDS011;11069;48.988;8.450;2022-07-29T08:46:39;7.47;;;3.35;;
21814;SDS011;11069;48.988;8.450;2022-07-29T08:49:04;7.70;;;3.00;;
21814;SDS011;11069;48.988;8.450;2022-07-29T08:51:30;7.63;;;3.10;;
21814;SDS011;11069;48.988;8.450;2022-07-29T08:53:58;7.53;;;3.25;;
21814;SDS011;11069;48.988;8.450;2022-07-29T08:56:24;5.07;;;2.60;;
21814;SDS011;11069;48.988;8.450;2022-07-29T08:58:50;6.60;;;2.70;;
21814;SDS011;11069;48.988;8.450;2022-07-29T09:01:17;7.35;;;2.90;;
21814;SDS011;11069;48.988;8.450;2022-07-29T09:03:47;6.60;;;2.75;;
21814;SDS011;11069;48.988;8.450;2022-07-29T09:06:15;6.50;;;3.08;;
21814;SDS011;11069;48.988;8.450;2022-07-29T09:08:43;10.13;;;3.17;;
21814;SDS011;11069;48.988;8.450;2022-07-29T09:11:10;11.88;;;3.08;;
21814;SDS011;11069;48.988;8.450;2022-07-29T09:13:36;5.60;;;3.00;;
21814;SDS011;11069;48.988;8.450;2022-07-29T09:16:02;4.75;;;3.00;;
21814;SDS011;11069;48.988;8.450;2022-07-29T09:18:38;13.77;;;3.45;;
21814;SDS011;11069;48.988;8.450;2022-07-29T09:21:06;12.68;;;3.03;;
21814;SDS011;11069;48.988;8.450;2022-07-29T09:24:10;5.40;;;2.83;;
21814;SDS011;11069;48.988;8.450;2022-07-29T09:26:41;6.65;;;2.88;;
21814;SDS011;11069;48.988;8.450;2022-07-29T09:29:11;7.88;;;3.03;;
21814;SDS011;11069;48.988;8.450;2022-07-29T09:31:40;8.63;;;2.95;;
21814;SDS011;11069;48.988;8.450;2022-07-29T09:34:07;6.00;;;3.13;;
21814;SDS011;11069;48.988;8.450;2022-07-29T09:36:41;4.15;;;2.90;;
21814;SDS011;11069;48.988;8.450;2022-07-29T09:39:11;6.57;;;2.90;;
21814;SDS011;11069;48.988;8.450;2022-07-29T09:41:48;6.07;;;3.00;;
21814;SDS011;11069;48.988;8.450;2022-07-29T09:44:17;10.98;;;2.80;;
21814;SDS011;11069;48.988;8.450;2022-07-29T09:47:03;6.50;;;2.70;;
21814;SDS011;11069;48.988;8.450;2022-07-29T09:49:33;7.28;;;3.22;;
21814;SDS011;11069;48.988;8.450;2022-07-29T09:52:03;6.38;;;3.03;;
21814;SDS011;11069;48.988;8.450;2022-07-29T09:54:31;8.63;;;2.95;;
21814;SDS011;11069;48.988;8.450;2022-07-29T09:57:01;7.05;;;3.42;;
21814;SDS011;11069;48.988;8.450;2022-07-29T10:00:00;8.35;;;2.92;;
21814;SDS011;11069;48.988;8.450;2022-07-29T10:02:32;4.75;;;2.97;;
21814;SDS011;11069;48.988;8.450;2022-07-29T10:05:00;6.47;;;2.60;;
21814;SDS011;11069;48.988;8.450;2022-07-29T10:07:42;9.80;;;3.22;;
21814;SDS011;11069;48.988;8.450;2022-07-29T10:10:28;6.28;;;4.03;;
21814;SDS011;11069;48.988;8.450;2022-07-29T10:13:05;4.57;;;2.83;;
21814;SDS011;11069;48.988;8.450;2022-07-29T10:15:35;7.93;;;3.05;;
21814;SDS011;11069;48.988;8.450;2022-07-29T10:18:03;6.75;;;2.80;;
21814;SDS011;11069;48.988;8.450;2022-07-29T10:20:30;6.43;;;3.53;;
21814;SDS011;11069;48.988;8.450;2022-07-29T10:22:56;10.98;;;4.63;;
21814;SDS011;11069;48.988;8.450;2022-07-29T10:25:22;12.38;;;6.38;;
21814;SDS011;11069;48.988;8.450;2022-07-29T10:27:49;10.15;;;4.88;;
21814;SDS011;11069;48.988;8.450;2022-07-29T10:30:20;10.05;;;3.47;;
21814;SDS011;11069;48.988;8.450;2022-07-29T10:35:46;4.32;;;3.20;;
21814;SDS011;11069;48.988;8.450;2022-07-29T10:38:34;4.85;;;2.78;;
21814;SDS011;11069;48.988;8.450;2022-07-29T10:44:23;7.38;;;2.90;;
21814;SDS011;11069;48.988;8.450;2022-07-29T10:46:50;9.23;;;2.83;;
21814;SDS011;11069;48.988;8.450;2022-07-29T10:49:18;9.32;;;2.80;;
21814;SDS011;11069;48.988;8.450;2022-07-29T10:54:40;10.13;;;2.65;;
21814;SDS011;11069;48.988;8.450;2022-07-29T11:00:26;5.18;;;2.55;;
21814;SDS011;11069;48.988;8.450;2022-07-29T11:02:53;9.00;;;2.42;;
21814;SDS011;11069;48.988;8.450;2022-07-29T11:05:21;5.07;;;2.22;;
21814;SDS011;11069;48.988;8.450;2022-07-29T11:10:42;7.15;;;2.38;;
21814;SDS011;11069;48.988;8.450;2022-07-29T11:13:08;6.25;;;2.42;;
21814;SDS011;11069;48.988;8.450;2022-07-29T11:15:53;4.88;;;2.05;;
21814;SDS011;11069;48.988;8.450;2022-07-29T11:18:22;5.28;;;2.22;;
21814;SDS011;11069;48.988;8.450;2022-07-29T11:20:48;4.30;;;1.80;;
21814;SDS011;11069;48.988;8.450;2022-07-29T11:23:22;8.68;;;2.17;;
21814;SDS011;11069;48.988;8.450;2022-07-29T11:28:54;5.53;;;1.80;;
21814;SDS011;11069;48.988;8.450;2022-07-29T11:31:37;5.90;;;2.17;;
21814;SDS011;11069;48.988;8.450;2022-07-29T11:34:25;5.93;;;2.40;;
21814;SDS011;11069;48.988;8.450;2022-07-29T11:39:37;5.57;;;1.92;;
21814;SDS011;11069;48.988;8.450;2022-07-29T11:42:53;7.78;;;2.00;;
21814;SDS011;11069;48.988;8.450;2022-07-29T11:44:54;5.43;;;1.88;;
21814;SDS011;11069;48.988;8.450;2022-07-29T11:47:26;5.90;;;2.00;;
21814;SDS011;11069;48.988;8.450;2022-07-29T11:49:54;4.93;;;1.85;;
21814;SDS011;11069;48.988;8.450;2022-07-29T11:52:22;7.88;;;1.95;;
21814;SDS011;11069;48.988;8.450;2022-07-29T11:54:49;4.95;;;2.03;;
21814;SDS011;11069;48.988;8.450;2022-07-29T11:57:19;4.47;;;2.10;;
21814;SDS011;11069;48.988;8.450;2022-07-29T11:59:45;8.38;;;2.55;;
21814;SDS011;11069;48.988;8.450;2022-07-29T12:02:12;8.63;;;2.50;;
21814;SDS011;11069;48.988;8.450;2022-07-29T12:04:55;6.25;;;2.58;;
21814;SDS011;11069;48.988;8.450;2022-07-29T12:07:31;8.75;;;2.60;;
21814;SDS011;11069;48.988;8.450;2022-07-29T12:09:59;2.22;;;1.83;;
21814;SDS011;11069;48.988;8.450;2022-07-29T12:12:25;7.72;;;2.63;;
21814;SDS011;11069;48.988;8.450;2022-07-29T12:14:51;5.78;;;2.42;;
21814;SDS011;11069;48.988;8.450;2022-07-29T12:17:33;10.15;;;2.00;;
21814;SDS011;11069;48.988;8.450;2022-07-29T12:20:02;9.23;;;2.10;;
21814;SDS011;11069;48.988;8.450;2022-07-29T12:22:30;5.17;;;1.80;;
21814;SDS011;11069;48.988;8.450;2022-07-29T12:25:03;8.65;;;2.13;;
21814;SDS011;11069;48.988;8.450;2022-07-29T12:27:34;8.70;;;1.95;;
21814;SDS011;11069;48.988;8.450;2022-07-29T12:30:05;6.25;;;2.03;;
21814;SDS011;11069;48.988;8.450;2022-07-29T12:32:37;5.20;;;2.00;;
21814;SDS011;11069;48.988;8.450;2022-07-29T12:35:05;5.15;;;1.90;;
21814;SDS011;11069;48.988;8.450;2022-07-29T12:37:37;5.07;;;1.75;;
21814;SDS011;11069;48.988;8.450;2022-07-29T12:40:04;3.38;;;1.83;;
21814;SDS011;11069;48.988;8.450;2022-07-29T12:42:31;3.30;;;1.80;;
21814;SDS011;11069;48.988;8.450;2022-07-29T12:44:57;4.65;;;1.70;;
21814;SDS011;11069;48.988;8.450;2022-07-29T12:47:23;6.63;;;2.08;;
21814;SDS011;11069;48.988;8.450;2022-07-29T12:49:49;3.90;;;1.80;;
21814;SDS011;11069;48.988;8.450;2022-07-29T12:52:34;4.97;;;2.05;;
21814;SDS011;11069;48.988;8.450;2022-07-29T12:55:00;6.55;;;2.03;;
21814;SDS011;11069;48.988;8.450;2022-07-29T12:57:26;5.43;;;1.75;;
21814;SDS011;11069;48.988;8.450;2022-07-29T12:59:59;4.68;;;2.00;;
21814;SDS011;11069;48.988;8.450;2022-07-29T13:02:26;5.13;;;1.90;;
21814;SDS011;11069;48.988;8.450;2022-07-29T13:04:55;5.20;;;2.10;;
21814;SDS011;11069;48.988;8.450;2022-07-29T13:07:26;5.93;;;1.90;;
21814;SDS011;11069;48.988;8.450;2022-07-29T13:09:54;3.83;;;1.88;;
21814;SDS011;11069;48.988;8.450;2022-07-29T13:15:26;9.18;;;2.03;;
21814;SDS011;11069;48.988;8.450;2022-07-29T13:17:52;5.78;;;1.73;;
21814;SDS011;11069;48.988;8.450;2022-07-29T13:20:18;6.15;;;1.80;;
21814;SDS011;11069;48.988;8.450;2022-07-29T13:22:47;4.07;;;1.88;;
21814;SDS011;11069;48.988;8.450;2022-07-29T13:25:13;9.52;;;1.70;;
21814;SDS011;11069;48.988;8.450;2022-07-29T13:27:39;5.18;;;2.10;;
21814;SDS011;11069;48.988;8.450;2022-07-29T13:30:05;5.22;;;2.08;;
21814;SDS011;11069;48.988;8.450;2022-07-29T13:32:33;8.80;;;1.90;;
21814;SDS011;11069;48.988;8.450;2022-07-29T13:35:03;5.85;;;1.83;;
21814;SDS011;11069;48.988;8.450;2022-07-29T13:37:31;5.53;;;1.80;;
21814;SDS011;11069;48.988;8.450;2022-07-29T13:39:59;7.20;;;1.90;;
21814;SDS011;11069;48.988;8.450;2022-07-29T13:42:25;6.90;;;1.77;;
21814;SDS011;11069;48.988;8.450;2022-07-29T13:44:51;8.15;;;2.13;;
21814;SDS011;11069;48.988;8.450;2022-07-29T13:47:17;7.25;;;1.73;;
21814;SDS011;11069;48.988;8.450;2022-07-29T13:49:44;5.93;;;1.45;;
21814;SDS011;11069;48.988;8.450;2022-07-29T13:52:09;3.90;;;1.60;;
21814;SDS011;11069;48.988;8.450;2022-07-29T13:54:35;5.57;;;1.88;;
21814;SDS011;11069;48.988;8.450;2022-07-29T13:57:02;5.18;;;1.85;;
21814;SDS011;11069;48.988;8.450;2022-07-29T13:59:28;8.48;;;1.60;;
21814;SDS011;11069;48.988;8.450;2022-07-29T14:01:54;4.93;;;1.90;;
21814;SDS011;11069;48.988;8.450;2022-07-29T14:04:20;5.25;;;1.58;;
21814;SDS011;11069;48.988;8.450;2022-07-29T14:06:46;2.97;;;1.70;;
21814;SDS011;11069;48.988;8.450;2022-07-29T14:09:12;4.55;;;1.67;;
21814;SDS011;11069;48.988;8.450;2022-07-29T14:11:38;4.40;;;1.77;;
21814;SDS011;11069;48.988;8.450;2022-07-29T14:14:03;6.63;;;1.77;;
21814;SDS011;11069;48.988;8.450;2022-07-29T14:16:29;3.05;;;1.50;;
21814;SDS011;11069;48.988;8.450;2022-07-29T14:18:55;7.03;;;1.80;;
21814;SDS011;11069;48.988;8.450;2022-07-29T14:21:20;4.10;;;1.67;;
21814;SDS011;11069;48.988;8.450;2022-07-29T14:23:46;7.45;;;1.58;;
21814;SDS011;11069;48.988;8.450;2022-07-29T14:26:12;4.70;;;1.50;;
21814;SDS011;11069;48.988;8.450;2022-07-29T14:28:38;5.72;;;1.58;;
21814;SDS011;11069;48.988;8.450;2022-07-29T14:31:04;8.68;;;2.08;;
21814;SDS011;11069;48.988;8.450;2022-07-29T14:33:29;9.05;;;2.10;;
21814;SDS011;11069;48.988;8.450;2022-07-29T14:35:55;5.40;;;1.60;;
21814;SDS011;11069;48.988;8.450;2022-07-29T14:38:21;4.32;;;1.67;;
21814;SDS011;11069;48.988;8.450;2022-07-29T14:40:46;4.32;;;1.70;;
21814;SDS011;11069;48.988;8.450;2022-07-29T14:43:12;4.78;;;1.70;;
21814;SDS011;11069;48.988;8.450;2022-07-29T14:45:39;2.65;;;1.33;;
21814;SDS011;11069;48.988;8.450;2022-07-29T14:48:05;6.03;;;2.00;;
21814;SDS011;11069;48.988;8.450;2022-07-29T14:50:31;6.57;;;1.73;;
21814;SDS011;11069;48.988;8.450;2022-07-29T14:52:57;7.60;;;1.95;;
21814;SDS011;11069;48.988;8.450;2022-07-29T14:55:23;6.53;;;1.55;;
21814;SDS011;11069;48.988;8.450;2022-07-29T14:57:49;5.35;;;1.77;;
21814;SDS011;11069;48.988;8.450;2022-07-29T15:00:14;3.95;;;1.52;;
21814;SDS011;11069;48.988;8.450;2022-07-29T15:02:41;5.43;;;1.85;;
21814;SDS011;11069;48.988;8.450;2022-07-29T15:05:06;6.63;;;1.95;;
21814;SDS011;11069;48.988;8.450;2022-07-29T15:07:32;4.53;;;1.52;;
21814;SDS011;11069;48.988;8.450;2022-07-29T15:09:58;6.60;;;1.70;;
21814;SDS011;11069;48.988;8.450;2022-07-29T15:12:23;4.18;;;1.77;;
21814;SDS011;11069;48.988;8.450;2022-07-29T15:14:49;5.07;;;1.80;;
21814;SDS011;11069;48.988;8.450;2022-07-29T15:17:14;4.50;;;1.60;;
21814;SDS011;11069;48.988;8.450;2022-07-29T15:19:40;5.78;;;1.75;;
21814;SDS011;11069;48.988;8.450;2022-07-29T15:22:06;5.38;;;2.00;;
21814;SDS011;11069;48.988;8.450;2022-07-29T15:24:32;2.95;;;1.65;;
21814;SDS011;11069;48.988;8.450;2022-07-29T15:26:57;5.22;;;1.70;;